Time;durP1;ratioP1;P1;durP2;ratioP2;P2;SDS_P1;SDS_P2;PMS_P1;PMS_P2;Temp;Humidity;BMP_temperature;BMP_pressure;BME280_temperature;BME280_humidity;BME280_pressure;Samples;Min_cycle;Max_cycle;Signal;HPM_P1;HPM_P2
2022/10/11 00:01:53;;;;;;;11.23;6.45;;;;;;;12.68;95.73;101030.19;5065887;28;20039;-73
2022/10/11 00:04:18;;;;;;;12.30;6.88;;;;;;;12.65;95.06;101032.84;5063922;28;20079;-73
2022/10/11 00:06:45;;;;;;;10.02;6.53;;;;;;;12.69;94.80;101040.78;5064771;28;20064;-72
2022/10/11 00:09:12;;;;;;;16.02;7.47;;;;;;;12.67;95.06;101045.19;5065284;28;20056;-73
2022/10/11 00:11:38;;;;;;;12.77;6.80;;;;;;;12.69;94.29;101040.78;5063102;28;20036;-72
2022/10/11 00:14:04;;;;;;;12.48;6.82;;;;;;;12.78;94.10;101033.66;5065885;28;20467;-72
2022/10/11 00:16:29;;;;;;;15.63;7.40;;;;;;;12.80;93.55;101030.09;5063076;28;20120;-72
2022/10/11 00:18:55;;;;;;;18.42;6.63;;;;;;;12.85;93.29;101033.59;5064963;28;20506;-72
2022/10/11 00:21:20;;;;;;;8.23;6.63;;;;;;;12.90;93.09;101039.75;5064350;28;20037;-72
2022/10/11 00:23:46;;;;;;;8.77;6.78;;;;;;;12.86;93.42;101045.06;5063524;28;20616;-72
2022/10/11 00:26:12;;;;;;;14.13;7.82;;;;;;;12.90;93.29;101060.06;5077292;28;20158;-72
2022/10/11 00:28:38;;;;;;;12.25;8.52;;;;;;;12.94;93.34;101053.84;5060879;28;20124;-73
2022/10/11 00:31:09;;;;;;;9.02;7.00;;;;;;;12.93;92.58;101057.38;5065477;28;20036;-73
2022/10/11 00:33:34;;;;;;;9.38;7.43;;;;;;;12.91;92.85;101069.75;5059437;28;20060;-72
2022/10/11 00:35:59;;;;;;;14.57;7.97;;;;;;;12.90;92.26;101070.66;5063852;28;20064;-72
2022/10/11 00:38:25;;;;;;;9.55;7.53;;;;;;;12.83;93.01;101071.59;5065871;28;20406;-72
2022/10/11 00:40:50;;;;;;;9.48;6.75;;;;;;;12.80;93.30;101076.91;5063202;28;20105;-73
2022/10/11 00:43:18;;;;;;;11.57;7.65;;;;;;;12.84;93.18;101084.84;5065214;28;20082;-72
2022/10/11 00:45:55;;;;;;;9.50;7.43;;;;;;;12.72;94.37;101085.78;5066806;28;20020;-72
2022/10/11 00:48:38;;;;;;;9.10;7.20;;;;;;;12.72;94.30;101082.25;5065555;28;20400;-72
2022/10/11 00:51:12;;;;;;;9.02;7.70;;;;;;;12.71;95.04;101088.44;5063088;28;20066;-72
2022/10/11 00:53:38;;;;;;;11.45;7.47;;;;;;;12.77;94.21;101090.19;5062269;28;20041;-73
2022/10/11 00:56:12;;;;;;;12.02;8.00;;;;;;;12.84;93.78;101095.44;5064169;28;20039;-72
2022/10/11 00:58:37;;;;;;;12.38;7.70;;;;;;;12.85;94.07;101096.31;5070080;28;20028;-72
2022/10/11 01:01:03;;;;;;;8.45;6.88;;;;;;;12.92;93.43;101104.19;5061762;28;20032;-73
2022/10/11 01:03:31;;;;;;;9.73;6.57;;;;;;;12.97;93.29;101106.81;5061878;28;20112;-72
2022/10/11 01:05:56;;;;;;;10.18;6.75;;;;;;;12.98;93.00;101107.69;5063785;28;20036;-73
2022/10/11 01:08:22;;;;;;;14.90;7.28;;;;;;;12.91;93.84;101110.38;5065800;28;20052;-72
2022/10/11 01:10:48;;;;;;;8.82;6.35;;;;;;;12.93;93.59;101115.66;5065023;28;20040;-73
2022/10/11 01:13:41;;;;;;;11.88;7.18;;;;;;;12.93;93.56;101124.50;5064529;28;20036;-72
2022/10/11 01:16:14;;;;;;;8.30;7.05;;;;;;;12.96;93.34;101130.66;5066909;28;20031;-73
2022/10/11 01:18:57;;;;;;;17.17;7.00;;;;;;;12.99;93.55;101131.50;5062714;28;20045;-73
2022/10/11 01:21:54;;;;;;;9.73;7.22;;;;;;;13.05;92.85;101133.28;5061919;28;20067;-73
2022/10/11 01:24:53;;;;;;;13.10;6.97;;;;;;;13.03;92.91;101138.56;5062956;28;20129;-72
2022/10/11 01:27:39;;;;;;;8.55;6.82;;;;;;;13.04;92.98;101145.63;5063877;28;20059;-73
2022/10/11 01:30:27;;;;;;;13.35;6.28;;;;;;;13.10;92.80;101139.44;5063768;28;20040;-73
2022/10/11 01:33:03;;;;;;;9.35;6.18;;;;;;;13.13;92.18;101150.00;5063221;28;20072;-72
2022/10/11 01:35:56;;;;;;;9.27;6.10;;;;;;;13.00;92.57;101149.19;5061270;28;20032;-73
2022/10/11 01:38:40;;;;;;;8.27;6.68;;;;;;;12.89;93.47;101154.56;5061947;28;20037;-72
2022/10/11 01:41:10;;;;;;;9.32;6.07;;;;;;;12.93;93.28;101153.63;5063844;28;20037;-72
2022/10/11 01:43:38;;;;;;;8.13;6.32;;;;;;;12.83;93.49;101159.00;5063072;28;20127;-72
2022/10/11 01:46:04;;;;;;;7.18;6.10;;;;;;;12.71;94.20;101162.59;5062998;28;20032;-72
2022/10/11 01:48:29;;;;;;;7.10;6.38;;;;;;;12.56;94.50;101163.53;5061703;28;20040;-72
2022/10/11 01:50:57;;;;;;;11.30;6.78;;;;;;;12.46;94.95;101175.94;5064329;28;20153;-72
2022/10/11 01:53:52;;;;;;;11.50;7.00;;;;;;;12.30;95.66;101178.66;5061425;28;20521;-72
2022/10/11 01:56:41;;;;;;;8.10;5.78;;;;;;;12.18;95.70;101175.16;5061824;28;20033;-73
2022/10/11 01:59:17;;;;;;;9.48;6.35;;;;;;;12.11;95.43;101186.63;5062115;28;20037;-73
2022/10/11 02:01:56;;;;;;;6.55;5.47;;;;;;;11.97;96.02;101183.09;5060950;28;20051;-72
2022/10/11 02:04:34;;;;;;;6.55;5.60;;;;;;;11.84;96.44;101182.22;5078055;28;20114;-73
2022/10/11 02:07:20;;;;;;;6.95;5.15;;;;;;;11.75;96.69;101185.75;5060591;28;20041;-72
2022/10/11 02:09:51;;;;;;;6.60;5.13;;;;;;;11.62;97.44;101191.94;5060724;28;20043;-73
2022/10/11 02:12:24;;;;;;;6.93;4.90;;;;;;;11.54;97.37;101198.97;5060030;28;20415;-72
2022/10/11 02:14:51;;;;;;;8.55;5.30;;;;;;;11.47;98.17;101197.19;5067381;28;20039;-72
2022/10/11 02:17:21;;;;;;;8.23;4.90;;;;;;;11.38;97.74;101206.88;5063252;28;20076;-72
2022/10/11 02:19:51;;;;;;;8.43;4.88;;;;;;;11.25;97.25;101218.31;5062904;28;20045;-72
2022/10/11 02:22:23;;;;;;;9.10;5.18;;;;;;;11.19;96.76;101218.31;5065100;28;20028;-72
2022/10/11 02:24:53;;;;;;;7.05;5.13;;;;;;;11.07;96.43;101218.28;5066821;28;20036;-72
2022/10/11 02:27:23;;;;;;;8.85;4.80;;;;;;;11.02;94.09;101212.97;5061282;28;20057;-73
2022/10/11 02:29:52;;;;;;;13.32;5.43;;;;;;;10.95;94.03;101209.44;5061405;28;20032;-72
2022/10/11 02:32:19;;;;;;;11.88;5.35;;;;;;;10.90;93.64;101219.13;5063305;28;20033;-72
2022/10/11 02:34:51;;;;;;;10.30;4.63;;;;;;;10.82;94.06;101223.50;5047443;28;20561;-72
2022/10/11 02:37:40;;;;;;;9.68;4.97;;;;;;;10.74;94.09;101219.91;5061721;28;20040;-72
2022/10/11 02:40:28;;;;;;;10.27;5.30;;;;;;;10.61;93.90;101224.28;5061937;28;20052;-73
2022/10/11 02:43:01;;;;;;;7.78;4.75;;;;;;;10.50;95.18;101226.84;5061732;28;20501;-72
2022/10/11 02:45:34;;;;;;;6.28;4.07;;;;;;;10.43;95.69;101221.53;5060244;28;20402;-73
2022/10/11 02:48:01;;;;;;;8.02;4.70;;;;;;;10.36;95.70;101238.22;5060897;28;20037;-72
2022/10/11 02:50:26;;;;;;;8.10;4.55;;;;;;;10.33;95.69;101239.06;5065077;28;20040;-73
2022/10/11 02:52:52;;;;;;;7.88;4.72;;;;;;;10.28;95.07;101235.53;5062079;28;20379;-73
2022/10/11 02:55:17;;;;;;;6.22;4.72;;;;;;;10.23;95.26;101237.22;5060032;28;20040;-72
2022/10/11 02:57:43;;;;;;;12.93;5.10;;;;;;;10.14;96.20;101231.84;5064019;28;20086;-72
2022/10/11 03:00:09;;;;;;;8.52;4.53;;;;;;;10.09;95.92;101242.41;5059993;28;20114;-72
2022/10/11 03:02:34;;;;;;;5.88;4.35;;;;;;;9.99;96.28;101253.75;5062156;28;20081;-72
2022/10/11 03:04:59;;;;;;;10.93;5.03;;;;;;;9.87;96.81;101254.50;5060948;28;20059;-72
2022/10/11 03:07:25;;;;;;;6.97;4.75;;;;;;;9.83;96.75;101261.53;5060716;28;20124;-72
2022/10/11 03:09:50;;;;;;;7.90;4.80;;;;;;;9.72;97.07;101264.94;5064417;28;20059;-72
2022/10/11 03:12:15;;;;;;;6.97;4.68;;;;;;;9.71;97.43;101268.44;5063485;28;20072;-72
2022/10/11 03:14:41;;;;;;;8.80;4.35;;;;;;;9.64;96.60;101276.31;5063698;28;20037;-72
2022/10/11 03:17:06;;;;;;;8.68;4.72;;;;;;;9.58;96.80;101291.16;5059779;28;20043;-72
2022/10/11 03:19:32;;;;;;;10.43;4.93;;;;;;;9.42;97.49;101284.84;5061842;28;20036;-72
2022/10/11 03:21:58;;;;;;;9.80;5.53;;;;;;;9.35;97.75;101290.91;5060853;28;20043;-72
2022/10/11 03:24:23;;;;;;;9.95;5.10;;;;;;;9.19;97.31;101292.50;5060554;28;20048;-72
2022/10/11 03:26:48;;;;;;;6.00;4.15;;;;;;;9.06;97.92;101303.75;5062045;28;20072;-72
2022/10/11 03:29:14;;;;;;;9.25;4.95;;;;;;;8.94;98.72;101309.75;5059474;28;20080;-72
2022/10/11 03:31:39;;;;;;;11.63;4.90;;;;;;;8.89;99.65;101311.44;5062600;28;20114;-73
2022/10/11 03:34:04;;;;;;;6.03;3.75;;;;;;;8.80;99.71;101313.94;5060715;28;20052;-72
2022/10/11 03:36:30;;;;;;;8.48;4.70;;;;;;;8.77;100.00;101318.28;5068187;28;20035;-72
2022/10/11 03:38:55;;;;;;;6.32;5.30;;;;;;;8.69;100.00;101314.66;5060930;28;20040;-72
2022/10/11 03:41:20;;;;;;;14.32;5.40;;;;;;;8.61;100.00;101316.31;5063959;28;20379;-72
2022/10/11 03:43:46;;;;;;;10.25;4.90;;;;;;;8.51;100.00;101314.41;5059400;28;20067;-72
2022/10/11 03:46:11;;;;;;;17.17;5.70;;;;;;;8.56;100.00;101324.13;5062148;28;20082;-72
2022/10/11 03:48:37;;;;;;;7.32;4.70;;;;;;;8.53;100.00;101326.72;5059655;28;20033;-72
2022/10/11 03:51:02;;;;;;;7.25;4.88;;;;;;;8.52;100.00;101326.72;5062768;28;20038;-72
2022/10/11 03:53:28;;;;;;;10.65;4.82;;;;;;;8.54;100.00;101332.84;5066863;28;20029;-72
2022/10/11 03:55:54;;;;;;;9.40;4.65;;;;;;;8.54;100.00;101336.41;5060087;28;20116;-72
2022/10/11 03:58:20;;;;;;;14.20;5.03;;;;;;;8.44;100.00;101338.88;5062096;28;20070;-72
2022/10/11 04:00:46;;;;;;;10.73;5.10;;;;;;;8.30;100.00;101335.97;5058914;28;20407;-72
2022/10/11 04:03:11;;;;;;;11.88;5.38;;;;;;;8.17;100.00;101342.75;5065841;28;20056;-72
2022/10/11 04:05:36;;;;;;;9.68;5.32;;;;;;;8.03;100.00;101346.91;5062729;28;20028;-72
2022/10/11 04:08:02;;;;;;;7.80;4.78;;;;;;;7.90;100.00;101345.81;5063752;28;20115;-72
2022/10/11 04:10:27;;;;;;;11.60;6.47;;;;;;;7.73;100.00;101350.78;5064591;28;21593;-72
2022/10/11 04:12:53;;;;;;;12.30;6.47;;;;;;;7.61;100.00;101345.28;5065362;28;20511;-72
2022/10/11 04:15:18;;;;;;;21.95;8.82;;;;;;;7.53;100.00;101355.66;5065791;28;21464;-72
2022/10/11 04:17:44;;;;;;;20.10;6.78;;;;;;;7.45;100.00;101352.00;5060528;28;20413;-72
2022/10/11 04:20:09;;;;;;;10.05;5.82;;;;;;;7.34;100.00;101361.41;5062564;28;20024;-72
2022/10/11 04:22:34;;;;;;;12.85;5.60;;;;;;;7.22;100.00;101364.66;5061933;28;20044;-72
2022/10/11 04:25:00;;;;;;;14.68;5.10;;;;;;;7.14;100.00;101372.34;5063467;28;20071;-72
2022/10/11 04:27:28;;;;;;;14.05;5.68;;;;;;;7.14;100.00;101372.34;5066181;28;20036;-72
2022/10/11 04:29:54;;;;;;;13.85;5.25;;;;;;;7.10;100.00;101381.03;5066194;28;20038;-72
2022/10/11 04:32:19;;;;;;;11.00;4.75;;;;;;;7.02;100.00;101383.50;5060636;28;20123;-73
2022/10/11 04:34:44;;;;;;;12.60;5.28;;;;;;;6.99;100.00;101380.78;5075865;22;20044;-74
2022/10/11 04:37:10;;;;;;;15.50;5.47;;;;;;;6.99;100.00;101377.28;5055653;28;20040;-74
2022/10/11 04:39:36;;;;;;;8.88;4.47;;;;;;;6.93;100.00;101392.91;5063233;28;20379;-74
2022/10/11 04:42:01;;;;;;;11.38;4.80;;;;;;;6.85;100.00;101384.84;5061486;28;20041;-74
2022/10/11 04:44:27;;;;;;;10.73;4.30;;;;;;;6.78;100.00;101386.44;5050237;28;20081;-75
2022/10/11 04:46:52;;;;;;;6.20;3.97;;;;;;;6.72;100.00;101396.78;5045139;28;20044;-74
2022/10/11 04:49:17;;;;;;;5.32;4.22;;;;;;;6.54;100.00;101392.00;5042646;28;20071;-74
2022/10/11 04:51:42;;;;;;;15.07;5.00;;;;;;;6.54;100.00;101398.97;5048146;28;20139;-74
2022/10/11 04:54:08;;;;;;;9.77;5.25;;;;;;;6.53;100.00;101398.09;5047404;28;20045;-74
2022/10/11 04:56:33;;;;;;;9.40;5.30;;;;;;;6.42;100.00;101404.81;5043991;28;20123;-74
2022/10/11 04:58:58;;;;;;;11.63;6.28;;;;;;;6.42;100.00;101415.31;5043117;28;20048;-74
2022/10/11 05:01:24;;;;;;;25.80;15.00;;;;;;;6.39;100.00;101411.72;5045680;28;20041;-74
2022/10/11 05:03:49;;;;;;;12.23;9.05;;;;;;;6.32;100.00;101418.56;5050737;28;20033;-75
2022/10/11 05:06:14;;;;;;;7.80;6.32;;;;;;;6.25;100.00;101427.09;5044129;28;20037;-74
2022/10/11 05:08:40;;;;;;;9.05;5.50;;;;;;;6.19;100.00;101419.97;5044407;28;20041;-74
2022/10/11 05:11:09;;;;;;;12.63;6.30;;;;;;;6.14;100.00;101421.59;5044315;28;20029;-74
2022/10/11 05:13:35;;;;;;;8.80;6.38;;;;;;;6.17;100.00;101420.78;5042147;28;20048;-74
2022/10/11 05:16:01;;;;;;;9.27;6.20;;;;;;;6.15;100.00;101423.34;5044873;28;20029;-74
2022/10/11 05:18:27;;;;;;;10.20;5.15;;;;;;;6.16;100.00;101435.63;5061349;28;20580;-74
2022/10/11 05:21:15;;;;;;;9.90;6.20;;;;;;;6.20;100.00;101442.69;5048295;28;20028;-74
2022/10/11 05:23:41;;;;;;;11.63;6.03;;;;;;;6.23;100.00;101440.16;5046066;28;20115;-74
2022/10/11 05:26:06;;;;;;;9.25;5.60;;;;;;;6.28;100.00;101442.91;5047462;28;20586;-74
2022/10/11 05:28:31;;;;;;;9.65;5.50;;;;;;;6.24;100.00;101451.56;5047664;28;20037;-74
2022/10/11 05:30:57;;;;;;;7.95;4.82;;;;;;;6.17;100.00;101454.84;5043788;28;20033;-74
2022/10/11 05:33:23;;;;;;;16.02;5.90;;;;;;;6.12;100.00;101452.97;5048885;28;20127;-74
2022/10/11 05:35:48;;;;;;;10.43;5.25;;;;;;;6.14;100.00;101461.78;5043937;28;20029;-74
2022/10/11 05:38:14;;;;;;;13.32;5.43;;;;;;;6.19;100.00;101459.28;5047458;28;20441;-74
2022/10/11 05:40:39;;;;;;;6.57;5.05;;;;;;;6.20;100.00;101465.41;5047773;28;20083;-74
2022/10/11 05:43:05;;;;;;;12.10;6.18;;;;;;;6.20;100.00;101466.28;5047916;28;20073;-75
2022/10/11 05:45:33;;;;;;;13.50;5.57;;;;;;;6.24;100.00;101462.03;5046568;28;20037;-74
2022/10/11 05:47:59;;;;;;;6.50;4.93;;;;;;;6.20;100.00;101466.28;5045064;28;20080;-74
2022/10/11 05:50:24;;;;;;;8.15;4.90;;;;;;;6.17;100.00;101474.06;5040318;28;20053;-75
2022/10/11 05:52:50;;;;;;;12.55;4.80;;;;;;;6.14;100.00;101481.88;5041312;28;20029;-73
2022/10/11 05:55:15;;;;;;;8.18;5.55;;;;;;;6.18;100.00;101481.09;5046598;28;20029;-74
2022/10/11 05:57:40;;;;;;;9.95;5.22;;;;;;;6.25;100.00;101483.03;5051068;28;20128;-74
2022/10/11 06:00:06;;;;;;;7.80;5.60;;;;;;;6.31;100.00;101485.84;5046989;28;20037;-74
2022/10/11 06:02:37;;;;;;;13.80;5.33;;;;;;;6.40;100.00;101492.16;5041911;28;20434;-74
2022/10/11 06:05:02;;;;;;;6.68;5.32;;;;;;;6.37;100.00;101490.34;5046610;28;20120;-74
2022/10/11 06:07:28;;;;;;;12.60;5.53;;;;;;;6.44;100.00;101486.13;5046130;28;20033;-74
2022/10/11 06:09:53;;;;;;;13.20;5.95;;;;;;;6.54;100.00;101494.28;5042184;28;20376;-74
2022/10/11 06:12:20;;;;;;;18.85;7.00;;;;;;;6.62;100.00;101498.84;5040581;28;20459;-75
2022/10/11 06:14:45;;;;;;;15.07;6.72;;;;;;;6.76;100.00;101508.84;5042696;28;20120;-74
2022/10/11 06:17:11;;;;;;;17.63;8.65;;;;;;;6.84;100.00;101509.03;5039111;28;20497;-74
2022/10/11 06:19:36;;;;;;;13.65;6.70;;;;;;;6.91;100.00;101510.94;5038609;28;20554;-73
2022/10/11 06:22:01;;;;;;;13.57;6.78;;;;;;;7.02;100.00;101514.72;5048762;28;20082;-74
2022/10/11 06:24:26;;;;;;;12.18;6.40;;;;;;;7.13;100.00;101521.97;5040853;28;20372;-75
2022/10/11 06:26:52;;;;;;;10.60;6.80;;;;;;;7.28;100.00;101516.19;5046609;28;20116;-75
2022/10/11 06:29:18;;;;;;;14.40;6.75;;;;;;;7.53;100.00;101526.41;5041922;28;20034;-75
2022/10/11 06:31:43;;;;;;;11.30;6.90;;;;;;;7.69;100.00;101522.34;5042372;28;20502;-75
2022/10/11 06:34:08;;;;;;;12.48;6.60;;;;;;;7.86;100.00;101523.59;5038470;28;20491;-74
2022/10/11 06:36:34;;;;;;;18.58;6.93;;;;;;;7.97;100.00;101528.22;5041241;28;20021;-75
2022/10/11 06:39:00;;;;;;;11.40;5.78;;;;;;;8.10;100.00;101525.84;5040359;28;20454;-75
2022/10/11 06:41:28;;;;;;;17.75;6.72;;;;;;;8.23;100.00;101528.72;5041602;28;20049;-74
2022/10/11 06:43:55;;;;;;;14.00;5.88;;;;;;;8.30;100.00;101525.34;5039125;28;20072;-75
2022/10/11 06:46:22;;;;;;;13.80;6.28;;;;;;;8.39;100.00;101533.44;5042913;28;20123;-75
2022/10/11 06:48:49;;;;;;;15.63;6.43;;;;;;;8.42;100.00;101530.88;5040734;28;20037;-75
2022/10/11 06:51:17;;;;;;;13.23;6.10;;;;;;;8.50;100.00;101536.28;5041943;28;20029;-75
2022/10/11 06:53:42;;;;;;;16.58;7.00;;;;;;;8.56;100.00;101536.38;5043473;28;20033;-75
2022/10/11 06:56:11;;;;;;;17.33;6.05;;;;;;;8.64;100.00;101540.03;5042646;28;20033;-75
2022/10/11 06:58:38;;;;;;;11.25;6.07;;;;;;;8.66;100.00;101546.22;5042641;28;20028;-75
2022/10/11 07:01:09;;;;;;;15.10;6.80;;;;;;;8.77;100.00;101551.66;5048183;28;20037;-75
2022/10/11 07:03:34;;;;;;;14.48;7.10;;;;;;;8.82;100.00;101547.38;5042889;28;20049;-75
2022/10/11 07:06:09;;;;;;;13.95;6.40;;;;;;;8.96;100.00;101552.84;5044076;28;20026;-75
2022/10/11 07:08:35;;;;;;;20.67;7.90;;;;;;;8.95;100.00;101554.59;5040630;28;20041;-75
2022/10/11 07:11:02;;;;;;;13.65;6.50;;;;;;;9.09;100.00;101556.59;5043323;28;20543;-75
2022/10/11 07:13:28;;;;;;;13.05;6.80;;;;;;;9.21;100.00;101562.94;5040379;28;20492;-74
2022/10/11 07:15:53;;;;;;;14.70;6.57;;;;;;;9.33;100.00;101566.66;5042228;28;20036;-74
2022/10/11 07:18:18;;;;;;;14.65;6.88;;;;;;;9.43;100.00;101561.53;5037787;28;20470;-75
2022/10/11 07:20:44;;;;;;;11.65;6.78;;;;;;;9.42;100.00;101569.41;5044909;28;20073;-75
2022/10/11 07:23:09;;;;;;;17.35;7.15;;;;;;;9.51;100.00;101564.28;5040335;28;20040;-74
2022/10/11 07:25:34;;;;;;;16.40;7.45;;;;;;;9.60;100.00;101561.78;5040962;28;20040;-75
2022/10/11 07:28:00;;;;;;;15.18;7.32;;;;;;;9.68;100.00;101568.91;5041407;28;20034;-75
2022/10/11 07:30:25;;;;;;;20.80;7.85;;;;;;;9.74;100.00;101564.59;5040112;28;20095;-74
2022/10/11 07:32:50;;;;;;;13.95;7.72;;;;;;;9.82;100.00;101572.59;5042635;28;20045;-75
2022/10/11 07:35:16;;;;;;;17.17;8.25;;;;;;;9.89;100.00;101579.75;5039018;28;20079;-75
2022/10/11 07:37:41;;;;;;;17.38;7.45;;;;;;;9.96;100.00;101576.31;5042110;28;20036;-75
2022/10/11 07:40:10;;;;;;;16.23;7.95;;;;;;;9.98;100.00;101578.97;5040336;28;20037;-76
2022/10/11 07:42:35;;;;;;;18.35;7.93;;;;;;;9.99;100.00;101576.38;5040606;28;20045;-75
2022/10/11 07:45:01;;;;;;;19.23;8.30;;;;;;;10.16;100.00;101583.59;5037351;28;20049;-74
2022/10/11 07:47:26;;;;;;;20.35;8.20;;;;;;;10.12;100.00;101581.81;5042252;28;20037;-75
2022/10/11 07:49:51;;;;;;;17.73;7.57;;;;;;;10.17;100.00;101590.66;5038729;28;20120;-75
2022/10/11 07:52:16;;;;;;;14.70;7.93;;;;;;;10.23;100.00;101596.00;5039703;28;20038;-76
2022/10/11 07:54:42;;;;;;;19.35;7.68;;;;;;;10.34;100.00;101594.41;5041284;28;20041;-75
2022/10/11 07:57:07;;;;;;;11.30;6.70;;;;;;;10.47;100.00;101590.16;5040522;28;20052;-75
2022/10/11 07:59:32;;;;;;;20.52;7.63;;;;;;;10.47;100.00;101585.75;5040361;28;20423;-75
2022/10/11 08:01:58;;;;;;;15.40;7.70;;;;;;;10.53;100.00;101596.41;5043706;28;20376;-74
2022/10/11 08:04:24;;;;;;;16.60;7.50;;;;;;;10.63;100.00;101599.13;5045632;28;20450;-75
2022/10/11 08:06:49;;;;;;;15.60;8.05;;;;;;;10.78;100.00;101612.50;5041972;28;20411;-75
2022/10/11 08:09:14;;;;;;;14.68;7.72;;;;;;;10.77;99.05;101600.16;5041845;28;20037;-75
2022/10/11 08:11:40;;;;;;;20.65;8.48;;;;;;;10.84;99.41;101598.47;5047032;28;20036;-75
2022/10/11 08:14:07;;;;;;;18.63;7.65;;;;;;;11.01;98.16;101593.34;5049909;28;20051;-75
2022/10/11 08:16:34;;;;;;;15.25;8.13;;;;;;;11.10;97.53;101596.06;5045285;28;20033;-74
2022/10/11 08:19:01;;;;;;;16.90;7.28;;;;;;;11.19;96.72;101593.50;5042496;28;20060;-75
2022/10/11 08:21:27;;;;;;;16.80;7.43;;;;;;;11.29;95.91;101603.28;5043260;28;20037;-75
2022/10/11 08:23:52;;;;;;;15.40;7.55;;;;;;;11.35;95.41;101595.41;5044770;28;20044;-75
2022/10/11 08:26:17;;;;;;;19.42;7.82;;;;;;;11.43;95.46;101598.09;5044008;28;20057;-75
2022/10/11 08:28:43;;;;;;;20.65;7.93;;;;;;;11.54;94.61;101590.25;5043636;28;20518;-75
2022/10/11 08:31:11;;;;;;;17.60;8.02;;;;;;;11.59;95.44;101596.44;5045583;28;20491;-75
2022/10/11 08:33:37;;;;;;;22.48;7.85;;;;;;;11.69;94.22;101595.63;5046881;28;20024;-74
2022/10/11 08:36:04;;;;;;;13.25;6.97;;;;;;;11.74;92.98;101601.84;5048904;28;20529;-75
2022/10/11 08:38:30;;;;;;;13.20;6.32;;;;;;;11.81;91.59;101597.44;5051469;28;20438;-75
2022/10/11 08:40:58;;;;;;;17.92;7.35;;;;;;;11.85;89.83;101597.47;5043654;28;20044;-75
2022/10/11 08:43:52;;;;;;;22.02;7.35;;;;;;;11.87;88.71;101602.84;5045425;28;20040;-75
2022/10/11 08:46:24;;;;;;;13.43;6.18;;;;;;;11.90;88.37;101596.69;5044077;28;20499;-75
2022/10/11 08:48:50;;;;;;;16.75;6.80;;;;;;;11.99;87.73;101605.53;5042957;28;20033;-74
2022/10/11 08:51:34;;;;;;;25.98;7.47;;;;;;;12.04;88.19;101601.13;5043345;28;20029;-75
2022/10/11 08:54:10;;;;;;;16.58;6.38;;;;;;;12.09;88.50;101611.75;5045236;28;20033;-75
2022/10/11 08:56:38;;;;;;;13.77;7.47;;;;;;;12.18;89.50;101600.31;5045225;28;20436;-75
2022/10/11 08:59:10;;;;;;;15.98;6.80;;;;;;;12.25;87.92;101596.81;5046815;28;20037;-75
2022/10/11 09:01:40;;;;;;;17.45;7.13;;;;;;;12.32;89.21;101598.63;5046359;28;20033;-75
2022/10/11 09:04:12;;;;;;;18.90;7.53;;;;;;;12.44;88.24;101601.31;5046339;28;20068;-75
2022/10/11 09:06:56;;;;;;;15.93;6.35;;;;;;;12.45;86.93;101600.44;5045036;28;20037;-76
2022/10/11 09:09:48;;;;;;;15.02;6.43;;;;;;;12.49;86.58;101606.59;5042488;28;20037;-75
2022/10/11 09:12:26;;;;;;;16.73;6.95;;;;;;;12.48;87.15;101607.50;5049460;28;20034;-75
2022/10/11 09:15:10;;;;;;;19.42;7.03;;;;;;;12.58;86.21;101611.94;5042953;28;20033;-75
2022/10/11 09:18:03;;;;;;;16.48;7.15;;;;;;;12.60;85.71;101611.94;5040024;28;20200;-75
2022/10/11 09:20:47;;;;;;;11.50;6.00;;;;;;;12.65;84.50;101608.44;5043643;28;20476;-75
2022/10/11 09:23:31;;;;;;;20.73;6.60;;;;;;;12.68;83.14;101610.19;5043213;28;20116;-75
2022/10/11 09:26:13;;;;;;;18.80;6.40;;;;;;;12.79;83.96;101602.28;5042362;28;20456;-75
2022/10/11 09:29:11;;;;;;;;;;;;;;;12.79;83.33;101604.94;5042389;28;20455;-75
2022/10/11 09:31:36;;;;;;;13.48;6.18;;;;;;;12.88;81.65;101605.81;5010014;28;20004;-75
2022/10/11 09:34:11;;;;;;;16.48;6.53;;;;;;;12.90;81.43;101608.47;5047110;28;20073;-75
2022/10/11 09:36:45;;;;;;;16.23;6.20;;;;;;;13.00;80.99;101604.09;5044665;28;20029;-75
2022/10/11 09:39:32;;;;;;;14.68;6.30;;;;;;;13.02;80.55;101600.56;5043090;28;20036;-75
2022/10/11 09:42:04;;;;;;;13.57;6.60;;;;;;;13.15;81.26;101599.69;5042482;28;20044;-75
2022/10/11 09:44:50;;;;;;;14.15;6.40;;;;;;;13.28;80.41;101607.66;5041664;28;20037;-75
2022/10/11 09:47:18;;;;;;;14.55;7.00;;;;;;;13.34;77.02;101608.53;5042990;28;20075;-75
2022/10/11 09:49:50;;;;;;;15.38;7.40;;;;;;;13.43;76.90;101612.94;5043866;28;20402;-75
2022/10/11 09:52:20;;;;;;;;;;;;;;;13.46;76.43;101610.28;5042597;28;20036;-75
2022/10/11 09:54:49;;;;;;;14.77;6.68;;;;;;;13.45;76.46;101611.19;5047478;28;19924;-75
2022/10/11 09:57:38;;;;;;;17.90;6.32;;;;;;;13.51;75.42;101611.16;5047155;28;20450;-75
2022/10/11 10:00:22;;;;;;;7.93;5.68;;;;;;;13.65;72.27;101605.88;5043945;28;20040;-75
2022/10/11 10:02:50;;;;;;;14.07;6.10;;;;;;;13.72;72.03;101604.94;5043310;28;20040;-75
2022/10/11 10:05:26;;;;;;;12.68;5.88;;;;;;;13.82;70.71;101614.66;5040793;28;20036;-74
2022/10/11 10:07:59;;;;;;;14.68;6.47;;;;;;;13.88;69.38;101608.44;5042389;28;20033;-75
2022/10/11 10:10:41;;;;;;;13.52;6.60;;;;;;;13.99;69.27;101616.38;5043754;28;20041;-76
2022/10/11 10:13:21;;;;;;;10.27;6.72;;;;;;;14.15;67.73;101607.50;5046577;28;20037;-75
2022/10/11 10:15:50;;;;;;;9.15;4.80;;;;;;;14.22;66.11;101603.91;5041048;28;20076;-75
2022/10/11 10:18:23;;;;;;;8.73;5.95;;;;;;;14.34;65.70;101616.25;5040061;28;20076;-74
2022/10/11 10:20:54;;;;;;;11.50;6.13;;;;;;;14.45;62.95;101616.22;5043855;28;20033;-76
2022/10/11 10:23:29;;;;;;;12.18;8.02;;;;;;;14.64;62.33;101612.59;5041311;28;20037;-75
2022/10/11 10:26:18;;;;;;;16.38;6.63;;;;;;;14.73;60.61;101605.47;5039337;28;20099;-75
2022/10/11 10:29:15;;;;;;;16.92;6.43;;;;;;;14.81;61.10;101608.97;5043073;28;20039;-75
2022/10/11 10:31:47;;;;;;;20.73;6.50;;;;;;;15.03;58.61;101612.34;5039923;28;20049;-75
2022/10/11 10:34:20;;;;;;;11.17;6.67;;;;;;;15.27;56.96;101606.84;5041757;28;20040;-75
2022/10/11 10:36:52;;;;;;;17.25;6.90;;;;;;;15.53;58.47;101609.25;5043337;28;20275;-75
2022/10/11 10:39:25;;;;;;;;;;;;;;;15.65;58.66;101604.72;5041492;28;20037;-75
2022/10/11 10:41:50;;;;;;;14.52;6.78;;;;;;;15.70;57.15;101605.59;5041260;28;20003;-75
2022/10/11 10:44:15;;;;;;;14.70;7.40;;;;;;;15.57;55.40;101615.44;5044427;28;20025;-75
2022/10/11 10:46:54;;;;;;;13.00;6.88;;;;;;;15.51;57.19;101613.72;5045575;28;20064;-75
2022/10/11 10:49:29;;;;;;;12.82;7.25;;;;;;;15.69;57.20;101603.81;5054405;28;20029;-75
2022/10/11 10:52:27;;;;;;;11.75;6.43;;;;;;;15.83;56.99;101601.03;5041483;28;20037;-75
2022/10/11 10:55:01;;;;;;;10.90;6.25;;;;;;;15.92;56.15;101609.78;5045094;28;20028;-75
2022/10/11 10:57:44;;;;;;;12.10;7.28;;;;;;;16.03;55.81;101593.69;5043186;28;20052;-75
2022/10/11 11:00:15;;;;;;;9.02;6.88;;;;;;;16.28;54.45;101601.38;5041985;28;20446;-75
2022/10/11 11:02:40;;;;;;;12.85;6.55;;;;;;;16.15;55.36;101601.53;5039816;28;20041;-75
2022/10/11 11:05:16;;;;;;;13.27;6.72;;;;;;;16.14;54.39;101602.44;5043330;28;20045;-75
2022/10/11 11:07:53;;;;;;;11.93;6.68;;;;;;;16.12;54.82;101606.91;5048170;28;20059;-75
2022/10/11 11:10:29;;;;;;;13.60;7.57;;;;;;;16.20;55.40;101593.50;5041485;28;20116;-75
2022/10/11 11:13:03;;;;;;;9.18;5.90;;;;;;;16.36;52.88;101604.81;5039764;28;20041;-76
2022/10/11 11:15:37;;;;;;;10.40;6.78;;;;;;;16.30;52.98;101599.59;5039742;28;20095;-74
2022/10/11 11:18:27;;;;;;;10.60;6.60;;;;;;;16.57;52.94;101603.66;5040373;28;20547;-74
2022/10/11 11:21:14;;;;;;;12.45;7.03;;;;;;;16.46;53.80;101602.94;5042028;28;20115;-76
2022/10/11 11:23:44;;;;;;;11.70;6.57;;;;;;;16.63;52.64;101598.22;5041595;28;20055;-75
2022/10/11 11:26:40;;;;;;;16.55;7.13;;;;;;;16.68;54.18;101598.16;5039618;28;20029;-75
2022/10/11 11:29:42;;;;;;;8.02;6.28;;;;;;;16.69;49.17;101592.84;5051856;28;20048;-75
2022/10/11 11:32:33;;;;;;;9.98;6.97;;;;;;;16.42;50.33;101597.63;5041556;28;20042;-75
2022/10/11 11:35:00;;;;;;;8.38;6.68;;;;;;;16.37;51.22;101595.91;5041577;28;20076;-75
2022/10/11 11:37:36;;;;;;;11.45;5.55;;;;;;;16.16;51.83;101595.28;5039655;28;20037;-75